createdAt,value
2022-10-11T00:00:16.898Z,95895.94
2022-10-11T00:02:44.462Z,95901.50
2022-10-11T00:05:13.574Z,95895.84
2022-10-11T00:07:41.155Z,95908.34
2022-10-11T00:10:10.651Z,95901.38
2022-10-11T00:12:38.394Z,95913.75
2022-10-11T00:15:07.357Z,95909.66
2022-10-11T00:17:35.871Z,95916.41
2022-10-11T00:20:03.475Z,95919.28
2022-10-11T00:22:32.433Z,95920.78
2022-10-11T00:25:00.313Z,95919.72
2022-10-11T00:27:28.269Z,95919.97
2022-10-11T00:29:55.912Z,95928.38
2022-10-11T00:32:23.731Z,95925.75
2022-10-11T00:34:51.357Z,95927.00
2022-10-11T00:37:19.347Z,95924.38
2022-10-11T00:39:48.437Z,95934.84
2022-10-11T00:42:17.792Z,95929.34
2022-10-11T00:44:48.069Z,95934.84
2022-10-11T00:47:18.682Z,95939.81
2022-10-11T00:49:52.249Z,95936.91
2022-10-11T00:52:29.017Z,95939.00
2022-10-11T00:54:59.178Z,95946.41
2022-10-11T00:57:31.196Z,95956.34
2022-10-11T00:59:59.735Z,95952.47
2022-10-11T01:02:30.269Z,95954.41
2022-10-11T01:05:25.277Z,95957.44
2022-10-11T01:07:48.335Z,95953.72
2022-10-11T01:10:17.454Z,95951.78
2022-10-11T01:12:56.186Z,95956.47
2022-10-11T01:15:32.653Z,95956.47
2022-10-11T01:18:07.086Z,95962.25
2022-10-11T01:20:46.602Z,95956.06
2022-10-11T01:23:41.549Z,95951.88
2022-10-11T01:26:43.037Z,95948.69
2022-10-11T01:29:20.783Z,95953.84
2022-10-11T01:31:56.593Z,95946.53
2022-10-11T01:34:32.365Z,95951.47
2022-10-11T01:37:06.752Z,95950.13
2022-10-11T01:39:39.358Z,95941.59
2022-10-11T01:42:10.849Z,95948.19
2022-10-11T01:44:40.460Z,95939.94
2022-10-11T01:47:09.450Z,95944.09
2022-10-11T01:49:37.047Z,95945.56
2022-10-11T01:52:06.779Z,95942.97
2022-10-11T01:55:10.459Z,95940.91
2022-10-11T01:58:02.394Z,95949.19
2022-10-11T02:00:40.403Z,95947.25
2022-10-11T02:03:20.637Z,95947.66
2022-10-11T02:05:52.914Z,95944.22
2022-10-11T02:08:27.077Z,95950.69
2022-10-11T02:11:01.604Z,95944.34
2022-10-11T02:13:33.552Z,95941.59
2022-10-11T02:16:05.836Z,95940.63
2022-10-11T02:18:39.217Z,95936.38
2022-10-11T02:21:11.451Z,95942.00
2022-10-11T02:23:43.484Z,95940.91
2022-10-11T02:26:13.682Z,95941.16
2022-10-11T02:28:44.992Z,95936.50
2022-10-11T02:31:14.052Z,95930.44
2022-10-11T02:33:47.722Z,95928.34
2022-10-11T02:36:21.893Z,95929.31
2022-10-11T02:38:53.960Z,95933.59
2022-10-11T02:41:27.092Z,95932.59
2022-10-11T02:44:00.045Z,95935.53
2022-10-11T02:46:30.474Z,95920.94
2022-10-11T02:49:00.913Z,95930.72
2022-10-11T02:51:31.878Z,95943.09
2022-10-11T02:53:59.792Z,95937.63
2022-10-11T02:56:27.485Z,95927.41
2022-10-11T02:58:55.100Z,95938.97
2022-10-11T03:01:22.777Z,95935.38
2022-10-11T03:03:50.660Z,95931.38
2022-10-11T03:06:20.439Z,95932.91
2022-10-11T03:08:48.071Z,95934.03
2022-10-11T03:11:15.784Z,95937.88
2022-10-11T03:13:43.386Z,95940.91
2022-10-11T03:16:11.241Z,95949.72
2022-10-11T03:18:39.071Z,95948.34
2022-10-11T03:21:06.679Z,95947.63
2022-10-11T03:23:35.589Z,95950.38
2022-10-11T03:26:04.095Z,95954.81
2022-10-11T03:28:32.036Z,95967.63
2022-10-11T03:30:59.791Z,95970.50
2022-10-11T03:33:27.537Z,95971.06
2022-10-11T03:35:55.584Z,95969.00
2022-10-11T03:38:26.051Z,95971.59
2022-10-11T03:40:55.208Z,95968.41
2022-10-11T03:43:22.788Z,95975.84
2022-10-11T03:45:50.834Z,95981.50
2022-10-11T03:48:18.439Z,95976.25
2022-10-11T03:50:46.088Z,95982.47
2022-10-11T03:53:13.706Z,95985.88
2022-10-11T03:55:42.156Z,95992.38
2022-10-11T03:58:11.187Z,95989.22
2022-10-11T04:00:38.824Z,95986.88
2022-10-11T04:03:06.400Z,95990.91
2022-10-11T04:05:33.989Z,95996.81
2022-10-11T04:08:01.637Z,95993.22
2022-10-11T04:10:30.973Z,95989.63
2022-10-11T04:12:58.650Z,95991.28
2022-10-11T04:15:27.592Z,95997.91
2022-10-11T04:17:55.168Z,95993.75
2022-10-11T04:20:22.769Z,95999.69
2022-10-11T04:22:50.463Z,95995.41
2022-10-11T04:25:18.068Z,95989.75
2022-10-11T04:27:45.638Z,95989.06
2022-10-11T04:30:14.372Z,95994.59
2022-10-11T04:32:43.640Z,95989.66
2022-10-11T04:35:11.572Z,95989.38
2022-10-11T04:37:39.459Z,95993.50
2022-10-11T04:40:08.603Z,95983.31
2022-10-11T04:42:36.270Z,95984.13
2022-10-11T04:45:03.962Z,95989.66
2022-10-11T04:47:31.659Z,95989.22
2022-10-11T04:50:00.610Z,95992.13
2022-10-11T04:52:28.213Z,95996.94
2022-10-11T04:54:55.889Z,95989.66
2022-10-11T04:57:23.464Z,95986.31
2022-10-11T04:59:51.063Z,95992.66
2022-10-11T05:02:18.752Z,95988.53
2022-10-11T05:04:46.554Z,95995.97
2022-10-11T05:07:15.599Z,95992.34
2022-10-11T05:09:43.178Z,95992.94
2022-10-11T05:12:10.810Z,95988.28
2022-10-11T05:14:38.542Z,95994.44
2022-10-11T05:17:06.158Z,95999.59
2022-10-11T05:19:33.734Z,95995.53
2022-10-11T05:22:01.730Z,95998.06
2022-10-11T05:24:30.657Z,96001.75
2022-10-11T05:27:02.409Z,95997.31
2022-10-11T05:29:30.985Z,95998.00
2022-10-11T05:31:58.554Z,95997.31
2022-10-11T05:34:26.234Z,96002.84
2022-10-11T05:36:53.854Z,95997.66
2022-10-11T05:39:21.462Z,95993.03
2022-10-11T05:41:51.782Z,96001.69
2022-10-11T05:44:19.453Z,96010.94
2022-10-11T05:46:47.208Z,96005.72
2022-10-11T05:49:15.003Z,96002.94
2022-10-11T05:51:42.582Z,96016.38
2022-10-11T05:54:10.320Z,96019.66
2022-10-11T05:56:37.932Z,96012.28
2022-10-11T05:59:07.187Z,96032.75
2022-10-11T06:01:34.891Z,96025.19
2022-10-11T06:04:02.536Z,96029.72
2022-10-11T06:06:30.165Z,96023.38
2022-10-11T06:08:57.781Z,96020.44
2022-10-11T06:11:28.286Z,96027.34
2022-10-11T06:13:57.154Z,96022.50
2022-10-11T06:16:26.304Z,96021.81
2022-10-11T06:18:54.818Z,96031.22
2022-10-11T06:21:22.914Z,96028.25
2022-10-11T06:23:52.315Z,96034.59
2022-10-11T06:26:21.361Z,96028.13
2022-10-11T06:28:49.233Z,96028.66
2022-10-11T06:31:16.902Z,96031.81
2022-10-11T06:33:45.793Z,96034.56
2022-10-11T06:36:15.078Z,96029.75
2022-10-11T06:38:45.194Z,96038.31
2022-10-11T06:41:16.985Z,96036.94
2022-10-11T06:43:44.969Z,96039.28
2022-10-11T06:46:13.197Z,96042.84
2022-10-11T06:48:41.620Z,96048.53
2022-10-11T06:51:10.916Z,96039.56
2022-10-11T06:53:38.864Z,96049.47
2022-10-11T06:56:09.283Z,96049.34
2022-10-11T06:58:37.355Z,96064.59
2022-10-11T07:01:07.864Z,96059.09
2022-10-11T07:03:35.658Z,96061.88
2022-10-11T07:06:04.096Z,96061.59
2022-10-11T07:08:33.647Z,96058.94
2022-10-11T07:11:02.150Z,96065.97
2022-10-11T07:13:29.847Z,96070.41
2022-10-11T07:15:57.593Z,96076.75
2022-10-11T07:18:25.278Z,96074.56
2022-10-11T07:20:52.845Z,96074.84
2022-10-11T07:23:20.482Z,96083.50
2022-10-11T07:25:49.867Z,96075.22
2022-10-11T07:28:17.508Z,96082.63
2022-10-11T07:30:45.061Z,96087.59
2022-10-11T07:33:12.635Z,96082.25
2022-10-11T07:35:42.082Z,96084.19
2022-10-11T07:38:12.959Z,96087.47
2022-10-11T07:40:43.102Z,96085.97
2022-10-11T07:43:12.778Z,96092.03
2022-10-11T07:45:41.321Z,96090.53
2022-10-11T07:48:09.861Z,96090.78
2022-10-11T07:50:37.718Z,96094.53
2022-10-11T07:53:05.451Z,96095.19
2022-10-11T07:55:40.071Z,96093.81
2022-10-11T07:58:08.117Z,96098.59
2022-10-11T08:00:37.608Z,96102.44
2022-10-11T08:03:06.694Z,96096.72
2022-10-11T08:05:34.855Z,96094.13
2022-10-11T08:08:02.420Z,96093.97
2022-10-11T08:10:30.148Z,96097.25
2022-10-11T08:13:01.955Z,96103.88
2022-10-11T08:15:31.801Z,96105.38
2022-10-11T08:18:00.893Z,96103.72
2022-10-11T08:20:31.099Z,96101.50
2022-10-11T08:22:58.665Z,96105.91
2022-10-11T08:25:26.406Z,96114.16
2022-10-11T08:27:54.036Z,96109.91
2022-10-11T08:30:21.786Z,96113.91
2022-10-11T08:32:49.811Z,96111.53
2022-10-11T08:35:18.902Z,96112.78
2022-10-11T08:37:46.456Z,96119.00
2022-10-11T08:40:17.119Z,96122.59
2022-10-11T08:42:48.775Z,96121.38
2022-10-11T08:45:25.980Z,96123.00
2022-10-11T08:48:07.881Z,96119.00
2022-10-11T08:50:37.768Z,96122.13
2022-10-11T08:53:14.757Z,96120.31
2022-10-11T08:55:45.740Z,96120.06
2022-10-11T08:58:16.616Z,96122.13
2022-10-11T09:00:48.311Z,96121.06
2022-10-11T09:03:27.872Z,96124.09
2022-10-11T09:06:13.222Z,96115.94
2022-10-11T09:08:52.755Z,96120.34
2022-10-11T09:11:33.250Z,96119.09
2022-10-11T09:14:25.273Z,96125.28
2022-10-11T09:17:03.379Z,96116.78
2022-10-11T09:19:49.115Z,96115.34
2022-10-11T09:22:30.426Z,96122.97
2022-10-11T09:25:12.903Z,96118.56
2022-10-11T09:28:02.417Z,96114.16
2022-10-11T09:30:32.013Z,96119.25
2022-10-11T09:33:09.774Z,96114.16
2022-10-11T09:35:41.924Z,96117.03
2022-10-11T09:38:19.430Z,96114.16
2022-10-11T09:40:55.767Z,96114.16
2022-10-11T09:43:23.364Z,96117.34
2022-10-11T09:45:51.119Z,96114.84
2022-10-11T09:48:22.744Z,96117.47
2022-10-11T09:50:52.500Z,96113.88
2022-10-11T09:53:21.968Z,96112.53
2022-10-11T09:55:53.811Z,96109.47
2022-10-11T09:58:28.019Z,96107.09
2022-10-11T10:01:07.436Z,96110.31
2022-10-11T10:03:36.846Z,96105.75
2022-10-11T10:06:10.215Z,96105.63
2022-10-11T10:08:39.414Z,96116.78
2022-10-11T10:11:09.450Z,96109.75
2022-10-11T10:13:49.892Z,96111.81
2022-10-11T10:16:23.611Z,96115.41
2022-10-11T10:18:53.597Z,96109.91
2022-10-11T10:21:30.779Z,96113.63
2022-10-11T10:24:04.099Z,96112.94
2022-10-11T10:26:33.299Z,96117.34
2022-10-11T10:29:18.503Z,96111.97
2022-10-11T10:32:13.258Z,96115.56
2022-10-11T10:34:51.570Z,96113.94
2022-10-11T10:37:26.311Z,96112.44
2022-10-11T10:40:00.595Z,96115.22
2022-10-11T10:42:28.863Z,96123.34
2022-10-11T10:44:59.389Z,96117.41
2022-10-11T10:47:50.397Z,96116.16
2022-10-11T10:50:22.650Z,96112.59
2022-10-11T10:53:01.871Z,96110.56
2022-10-11T10:55:38.504Z,96109.88
2022-10-11T10:58:18.757Z,96104.81
2022-10-11T11:00:49.768Z,96101.91
2022-10-11T11:03:25.121Z,96106.19
2022-10-11T11:06:01.996Z,96107.28
2022-10-11T11:08:51.491Z,96098.22
2022-10-11T11:11:32.322Z,96102.53
2022-10-11T11:14:08.320Z,96098.22
2022-10-11T11:16:44.639Z,96098.06
2022-10-11T11:19:25.068Z,96091.28
2022-10-11T11:22:00.148Z,96093.09
2022-10-11T11:24:40.856Z,96095.59
2022-10-11T11:27:18.688Z,96089.94
2022-10-11T11:29:56.740Z,96087.75
2022-10-11T11:32:35.749Z,96091.22
2022-10-11T11:35:06.912Z,96083.34
2022-10-11T11:37:38.227Z,96082.09
2022-10-11T11:40:15.374Z,96077.66
2022-10-11T11:42:48.953Z,96071.56
2022-10-11T11:45:22.385Z,96074.44
2022-10-11T11:47:55.506Z,96079.13
2022-10-11T11:50:27.312Z,96075.00
2022-10-11T11:53:00.020Z,96073.78
2022-10-11T11:55:33.698Z,96087.31
2022-10-11T11:58:13.930Z,96088.69
2022-10-11T12:01:03.627Z,96087.16
2022-10-11T12:03:41.584Z,96080.28
2022-10-11T12:06:29.479Z,96074.44
2022-10-11T12:09:04.018Z,96077.75
2022-10-11T12:11:46.914Z,96076.06
2022-10-11T12:14:27.695Z,96069.72
2022-10-11T12:17:20.885Z,96069.72
2022-10-11T12:20:15.609Z,96070.56
2022-10-11T12:22:56.098Z,96068.78
2022-10-11T12:25:40.055Z,96069.88
2022-10-11T12:29:00.673Z,96061.84
2022-10-11T12:31:31.478Z,96063.53
2022-10-11T12:34:34.631Z,96056.91
2022-10-11T12:37:37.181Z,96052.00
2022-10-11T12:40:33.529Z,96044.44
2022-10-11T12:43:11.863Z,96044.00
2022-10-11T12:45:39.456Z,96044.88
2022-10-11T12:48:34.062Z,96045.47
2022-10-11T12:51:23.872Z,96050.03
2022-10-11T12:54:28.337Z,96048.81
2022-10-11T12:57:17.079Z,96050.34
2022-10-11T12:59:46.449Z,96047.88
2022-10-11T13:02:28.865Z,96048.88
2022-10-11T13:05:09.167Z,96044.59
2022-10-11T13:07:37.161Z,96040.53
2022-10-11T13:10:06.257Z,96054.50
2022-10-11T13:12:41.528Z,96048.72
2022-10-11T13:15:15.429Z,96048.88
2022-10-11T13:17:44.105Z,96048.31
2022-10-11T13:20:19.568Z,96050.94
2022-10-11T13:22:50.096Z,96052.44
2022-10-11T13:25:20.359Z,96051.22
2022-10-11T13:27:49.853Z,96050.50
2022-10-11T13:30:20.267Z,96043.22
2022-10-11T13:32:48.443Z,96049.44
2022-10-11T13:35:25.380Z,96048.72
2022-10-11T13:37:53.290Z,96046.81
2022-10-11T13:40:23.084Z,96046.38
2022-10-11T13:42:52.549Z,96044.31
2022-10-11T13:45:22.611Z,96043.16
2022-10-11T13:47:51.476Z,96041.09
2022-10-11T13:50:32.135Z,96033.63
2022-10-11T13:53:02.235Z,96039.38
2022-10-11T13:55:33.476Z,96037.16
2022-10-11T13:58:03.912Z,96039.09
2022-10-11T14:00:38.797Z,96034.41
2022-10-11T14:03:16.447Z,96032.91
2022-10-11T14:05:54.681Z,96033.50
2022-10-11T14:08:25.854Z,96039.19
2022-10-11T14:10:59.381Z,96041.28
2022-10-11T14:13:32.379Z,96045.97
2022-10-11T14:16:02.400Z,96042.13
2022-10-11T14:18:39.528Z,96041.59
2022-10-11T14:21:27.548Z,96039.66
2022-10-11T14:23:56.490Z,96041.16
2022-10-11T14:26:25.564Z,96032.72
2022-10-11T14:28:57.735Z,96042.25
2022-10-11T14:31:28.109Z,96040.28
2022-10-11T14:33:56.974Z,96032.00
2022-10-11T14:36:26.283Z,96030.69
2022-10-11T14:38:54.638Z,96036.25
2022-10-11T14:41:22.349Z,96039.22
2022-10-11T14:43:49.969Z,96044.59
2022-10-11T14:46:23.201Z,96048.41
2022-10-11T14:48:55.499Z,96039.13
2022-10-11T14:51:30.551Z,96043.41
2022-10-11T14:53:58.722Z,96046.19
2022-10-11T14:56:26.421Z,96040.63
2022-10-11T14:58:54.016Z,96043.63
2022-10-11T15:01:21.715Z,96046.69
2022-10-11T15:03:49.398Z,96045.34
2022-10-11T15:06:20.059Z,96045.50
2022-10-11T15:08:49.819Z,96046.94
2022-10-11T15:11:21.118Z,96046.22
2022-10-11T15:13:48.932Z,96039.66
2022-10-11T15:16:19.962Z,96045.94
2022-10-11T15:18:50.856Z,96041.41
2022-10-11T15:21:20.194Z,96047.25
2022-10-11T15:23:50.128Z,96042.44
2022-10-11T15:26:19.626Z,96047.00
2022-10-11T15:28:47.995Z,96041.25
2022-10-11T15:31:15.778Z,96042.63
2022-10-11T15:33:43.471Z,96039.63
2022-10-11T15:36:15.223Z,96045.69
2022-10-11T15:38:45.435Z,96038.38
2022-10-11T15:41:15.644Z,96045.69
2022-10-11T15:43:44.824Z,96040.59
2022-10-11T15:46:15.147Z,96035.66
2022-10-11T15:48:43.256Z,96043.81
2022-10-11T15:51:11.323Z,96044.09
2022-10-11T15:53:38.948Z,96039.81
2022-10-11T15:56:09.474Z,96040.09
2022-10-11T15:58:40.847Z,96036.81
2022-10-11T16:01:10.363Z,96040.94
2022-10-11T16:03:37.973Z,96046.19
2022-10-11T16:06:06.085Z,96038.59
2022-10-11T16:08:33.867Z,96040.38
2022-10-11T16:13:29.853Z,96043.41
2022-10-11T16:16:01.110Z,96047.69
2022-10-11T16:18:34.140Z,96050.06
2022-10-11T16:21:06.380Z,96045.38
2022-10-11T16:23:34.261Z,96048.28
2022-10-11T16:26:05.051Z,96053.47
2022-10-11T16:28:33.225Z,96046.84
2022-10-11T16:31:07.214Z,96041.09
2022-10-11T16:33:34.863Z,96047.88
2022-10-11T16:36:20.852Z,96047.03
2022-10-11T16:38:48.414Z,96051.34
2022-10-11T16:41:15.997Z,96053.97
2022-10-11T16:43:43.614Z,96057.00
2022-10-11T16:46:12.563Z,96057.94
2022-10-11T16:48:40.134Z,96056.41
2022-10-11T16:51:08.927Z,96053.81
2022-10-11T16:53:36.770Z,96055.34
2022-10-11T16:56:07.783Z,96063.50
2022-10-11T16:58:36.328Z,96063.78
2022-10-11T17:01:08.561Z,96067.94
2022-10-11T17:03:38.115Z,96067.50
2022-10-11T17:06:07.057Z,96067.66
2022-10-11T17:08:35.264Z,96066.97
2022-10-11T17:11:03.445Z,96065.72
2022-10-11T17:13:31.235Z,96065.72
2022-10-11T17:15:58.879Z,96062.00
2022-10-11T17:18:26.748Z,96063.69
2022-10-11T17:21:02.959Z,96064.09
2022-10-11T17:23:30.711Z,96067.13
2022-10-11T17:25:58.456Z,96066.81
2022-10-11T17:28:26.408Z,96064.47
2022-10-11T17:30:55.571Z,96070.44
2022-10-11T17:33:23.387Z,96066.56
2022-10-11T17:35:50.994Z,96066.72
2022-10-11T17:38:20.804Z,96074.28
2022-10-11T17:40:48.676Z,96075.13
2022-10-11T17:43:16.738Z,96075.00
2022-10-11T17:45:44.314Z,96072.94
2022-10-11T17:48:11.926Z,96081.06
2022-10-11T17:50:43.402Z,96074.31
2022-10-11T17:53:12.514Z,96072.78
2022-10-11T17:55:43.840Z,96078.19
2022-10-11T17:58:18.542Z,96078.59
2022-10-11T18:00:46.383Z,96075.44
2022-10-11T18:03:14.004Z,96078.19
2022-10-11T18:05:42.178Z,96080.09
2022-10-11T18:08:11.044Z,96078.75
2022-10-11T18:10:41.941Z,96075.44
2022-10-11T18:13:15.410Z,96075.66
2022-10-11T18:15:43.126Z,96067.81
2022-10-11T18:18:11.863Z,96067.94
2022-10-11T18:20:39.631Z,96071.53
2022-10-11T18:23:07.251Z,96071.81
2022-10-11T18:25:35.116Z,96073.59
2022-10-11T18:28:02.686Z,96061.59
2022-10-11T18:30:31.665Z,96061.75
2022-10-11T18:32:59.279Z,96059.41
2022-10-11T18:35:26.899Z,96056.78
2022-10-11T18:38:00.062Z,96057.47
2022-10-11T18:40:28.453Z,96057.75
2022-10-11T18:42:56.106Z,96062.44
2022-10-11T18:45:23.837Z,96060.09
2022-10-11T18:47:52.807Z,96059.56
2022-10-11T18:50:20.651Z,96053.34
2022-10-11T18:52:56.972Z,96058.59
2022-10-11T18:55:30.017Z,96054.72
2022-10-11T18:58:01.437Z,96061.19
2022-10-11T19:00:40.568Z,96056.25
2022-10-11T19:03:10.190Z,96061.31
2022-10-11T19:05:39.629Z,96063.84
2022-10-11T19:08:09.970Z,96065.06
2022-10-11T19:10:37.571Z,96066.06
2022-10-11T19:13:05.292Z,96061.03
2022-10-11T19:15:35.973Z,96055.97
2022-10-11T19:18:07.877Z,96061.75
2022-10-11T19:20:37.012Z,96057.88
2022-10-11T19:23:04.634Z,96059.13
2022-10-11T19:25:36.117Z,96064.63
2022-10-11T19:28:03.801Z,96058.03
2022-10-11T19:30:32.674Z,96057.31
2022-10-11T19:33:00.782Z,96060.06
2022-10-11T19:35:28.516Z,96065.44
2022-10-11T19:37:57.632Z,96062.84
2022-10-11T19:40:27.217Z,96061.59
2022-10-11T19:42:56.614Z,96067.66
2022-10-11T19:45:24.231Z,96056.75
2022-10-11T19:47:51.801Z,96052.50
2022-10-11T19:50:19.569Z,96057.19
2022-10-11T19:52:47.175Z,96053.19
2022-10-11T19:55:16.394Z,96052.22
2022-10-11T19:57:44.074Z,96053.34
2022-10-11T20:00:12.814Z,96058.00
2022-10-11T20:02:40.435Z,96058.28
2022-10-11T20:05:08.599Z,96051.81
2022-10-11T20:07:36.607Z,96053.34
2022-10-11T20:10:04.564Z,96055.09
2022-10-11T20:12:34.070Z,96063.50
2022-10-11T20:15:01.938Z,96059.50
2022-10-11T20:17:48.199Z,96056.22
2022-10-11T20:20:16.304Z,96058.28
2022-10-11T20:22:43.936Z,96067.22
2022-10-11T20:25:11.718Z,96064.59
2022-10-11T20:27:42.484Z,96071.78
2022-10-11T20:30:12.444Z,96067.34
2022-10-11T20:32:40.115Z,96071.78
2022-10-11T20:35:09.199Z,96067.25
2022-10-11T20:37:37.470Z,96075.25
2022-10-11T20:40:05.767Z,96071.78
2022-10-11T20:42:33.323Z,96068.50
2022-10-11T20:45:04.417Z,96066.44
2022-10-11T20:47:32.398Z,96068.06
2022-10-11T20:50:02.993Z,96066.41
2022-10-11T20:52:30.986Z,96063.50
2022-10-11T20:54:58.829Z,96059.78
2022-10-11T20:57:28.334Z,96063.53
2022-10-11T20:59:56.344Z,96050.84
2022-10-11T21:02:25.269Z,96056.88
2022-10-11T21:04:52.907Z,96051.78
2022-10-11T21:07:20.519Z,96052.72
2022-10-11T21:09:48.371Z,96045.84
2022-10-11T21:12:15.972Z,96051.78
2022-10-11T21:14:43.544Z,96044.19
2022-10-11T21:17:11.525Z,96046.41
2022-10-11T21:19:40.473Z,96047.38
2022-10-11T21:22:08.047Z,96049.16
2022-10-11T21:24:35.642Z,96042.56
2022-10-11T21:27:03.251Z,96043.78
2022-10-11T21:29:31.323Z,96051.91
2022-10-11T21:31:59.017Z,96042.66
2022-10-11T21:34:26.619Z,96054.06
2022-10-11T21:36:55.574Z,96053.28
2022-10-11T21:39:23.181Z,96056.69
2022-10-11T21:41:50.806Z,96052.56
2022-10-11T21:44:18.605Z,96056.28
2022-10-11T21:47:07.175Z,96056.16
2022-10-11T21:49:34.172Z,96055.31
2022-10-11T21:52:03.149Z,96053.69
2022-10-11T21:54:30.749Z,96052.84
2022-10-11T21:56:58.441Z,96044.16
2022-10-11T21:59:26.166Z,96037.28
2022-10-11T22:01:55.992Z,96047.03
2022-10-11T22:04:27.012Z,96044.56
2022-10-11T22:06:54.613Z,96045.66
2022-10-11T22:09:23.833Z,96053.09
2022-10-11T22:11:51.512Z,96048.69
2022-10-11T22:14:19.518Z,96046.91
2022-10-11T22:16:47.094Z,96048.84
2022-10-11T22:19:14.729Z,96043.63
2022-10-11T22:21:45.098Z,96041.94
2022-10-11T22:24:13.367Z,96038.50
2022-10-11T22:26:42.342Z,96035.19
2022-10-11T22:29:10.122Z,96035.31
2022-10-11T22:31:37.965Z,96024.88
2022-10-11T22:34:05.594Z,96025.81
2022-10-11T22:36:33.689Z,96027.03
2022-10-11T22:39:02.508Z,96023.75
2022-10-11T22:41:30.057Z,96031.72
2022-10-11T22:43:58.979Z,96024.72
2022-10-11T22:46:26.803Z,96024.13
2022-10-11T22:48:54.435Z,96024.69
2022-10-11T22:51:21.991Z,96018.63
2022-10-11T22:53:49.636Z,96021.38
2022-10-11T22:56:17.194Z,96020.41
2022-10-11T22:58:45.374Z,96019.19
2022-10-11T23:01:15.857Z,96026.59
2022-10-11T23:03:43.705Z,96019.13
2022-10-11T23:06:11.402Z,96015.97
2022-10-11T23:08:38.983Z,96018.81
2022-10-11T23:11:07.922Z,96020.75
2022-10-11T23:13:36.111Z,96027.06
2022-10-11T23:16:07.177Z,96025.53
2022-10-11T23:18:36.324Z,96028.28
2022-10-11T23:21:05.200Z,96024.84
2022-10-11T23:23:33.174Z,96034.59
2022-10-11T23:26:05.572Z,96028.53
2022-10-11T23:28:33.353Z,96029.38
2022-10-11T23:31:01.907Z,96035.53
2022-10-11T23:33:29.816Z,96033.06
2022-10-11T23:35:58.822Z,96033.22
2022-10-11T23:38:26.409Z,96034.28
2022-10-11T23:40:54.024Z,96038.00
2022-10-11T23:43:21.602Z,96040.75
2022-10-11T23:45:49.414Z,96035.63
2022-10-11T23:48:16.971Z,96034.94
2022-10-11T23:50:44.558Z,96033.16
2022-10-11T23:53:14.316Z,96035.53
2022-10-11T23:55:43.085Z,96038.38
2022-10-11T23:58:10.714Z,96043.06
